createdAt,value
2016-08-11T00:00:33.149Z,11.35
2016-08-11T00:01:32.424Z,11.2
2016-08-11T00:02:32.435Z,11.2
2016-08-11T00:03:32.432Z,11.19
2016-08-11T00:04:33.148Z,11.23
2016-08-11T00:05:32.421Z,11.15
2016-08-11T00:06:33.157Z,11.23
2016-08-11T00:07:33.154Z,11.19
2016-08-11T00:08:33.149Z,11.22
2016-08-11T00:09:33.136Z,11.16
2016-08-11T00:10:33.140Z,11.2
2016-08-11T00:11:32.425Z,11.27
2016-08-11T00:12:33.141Z,11.27
2016-08-11T00:13:33.148Z,11.26
2016-08-11T00:14:33.140Z,11.3
2016-08-11T00:15:32.413Z,11.33
2016-08-11T00:16:32.410Z,11.3
2016-08-11T00:17:33.133Z,11.22
2016-08-11T00:18:33.132Z,11.27
2016-08-11T00:19:32.408Z,11.27
2016-08-11T00:20:33.122Z,11.3
2016-08-11T00:21:32.413Z,11.27
2016-08-11T00:22:33.139Z,11.27
2016-08-11T00:23:33.124Z,11.27
2016-08-11T00:24:33.114Z,11.27
2016-08-11T00:25:33.121Z,11.33
2016-08-11T00:26:33.125Z,11.3
2016-08-11T00:27:32.397Z,11.31
2016-08-11T00:28:32.406Z,11.35
2016-08-11T00:29:33.113Z,11.35
2016-08-11T00:30:33.118Z,11.3
2016-08-11T00:31:33.114Z,11.31
2016-08-11T00:32:33.110Z,11.37
2016-08-11T00:33:32.389Z,11.37
2016-08-11T00:34:32.385Z,11.31
2016-08-11T00:35:33.105Z,11.19
2016-08-11T00:36:33.109Z,11.31
2016-08-11T00:37:33.113Z,11.34
2016-08-11T00:38:33.105Z,11.35
2016-08-11T00:39:32.390Z,11.27
2016-08-11T00:40:33.102Z,11.27
2016-08-11T00:41:33.114Z,11.31
2016-08-11T00:42:33.119Z,11.13
2016-08-11T00:44:32.385Z,11.34
2016-08-11T00:45:33.106Z,11.33
2016-08-11T00:46:33.094Z,11.34
2016-08-11T00:47:33.098Z,11.35
2016-08-11T00:48:33.098Z,11.31
2016-08-11T00:49:33.101Z,11.25
2016-08-11T00:50:33.095Z,11.22
2016-08-11T00:51:33.091Z,11.25
2016-08-11T00:52:32.378Z,11.27
2016-08-11T00:53:33.090Z,11.33
2016-08-11T00:54:33.082Z,11.31
2016-08-11T00:55:33.090Z,11.34
2016-08-11T00:56:33.082Z,11.31
2016-08-11T00:57:32.370Z,11.34
2016-08-11T00:58:31.718Z,11.4
2016-08-11T00:59:32.367Z,11.4
2016-08-11T01:00:32.359Z,11.38
2016-08-11T01:01:33.075Z,11.37
2016-08-11T01:02:32.358Z,11.4
2016-08-11T01:03:32.370Z,11.35
2016-08-11T01:04:33.075Z,11.35
2016-08-11T01:05:33.075Z,11.35
2016-08-11T01:06:32.402Z,11.35
2016-08-11T01:07:31.635Z,11.31
2016-08-11T01:08:33.079Z,11.37
2016-08-11T01:09:33.071Z,11.33
2016-08-11T01:10:33.074Z,11.33
2016-08-11T01:11:32.354Z,11.35
2016-08-11T01:12:33.063Z,11.23
2016-08-11T01:13:32.382Z,11.23
2016-08-11T01:14:32.342Z,11.22
2016-08-11T01:15:31.614Z,11.15
2016-08-11T01:16:33.063Z,11.16
2016-08-11T01:17:32.343Z,11.16
2016-08-11T01:18:32.339Z,11.15
2016-08-11T01:19:32.334Z,11.02
2016-08-11T01:20:33.056Z,11.08
2016-08-11T01:21:32.327Z,11.02
2016-08-11T01:22:33.051Z,11
2016-08-11T01:23:33.054Z,11.04
2016-08-11T01:24:33.065Z,10.97
2016-08-11T01:25:33.055Z,10.95
2016-08-11T01:26:32.323Z,10.89
2016-08-11T01:27:33.051Z,10.97
2016-08-11T01:29:33.035Z,10.92
2016-08-11T01:30:32.323Z,10.87
2016-08-11T01:31:33.047Z,10.95
2016-08-11T01:32:33.055Z,10.92
2016-08-11T01:33:33.038Z,11.01
2016-08-11T01:34:33.044Z,10.97
2016-08-11T01:35:32.319Z,10.98
2016-08-11T01:36:33.043Z,10.94
2016-08-11T01:37:32.307Z,10.95
2016-08-11T01:38:31.588Z,10.94
2016-08-11T01:39:33.028Z,10.95
2016-08-11T01:40:32.312Z,10.92
2016-08-11T01:41:32.307Z,10.94
2016-08-11T01:42:31.588Z,10.94
2016-08-11T01:44:32.306Z,11
2016-08-11T01:45:32.303Z,10.95
2016-08-11T01:46:33.019Z,10.92
2016-08-11T01:47:32.304Z,10.94
2016-08-11T01:48:33.019Z,10.95
2016-08-11T01:49:33.019Z,10.95
2016-08-11T01:50:33.014Z,10.98
2016-08-11T01:51:33.019Z,10.95
2016-08-11T01:52:33.011Z,10.95
2016-08-11T01:53:33.008Z,10.97
2016-08-11T01:54:33.007Z,10.95
2016-08-11T01:55:31.568Z,11.01
2016-08-11T01:56:32.288Z,11.02
2016-08-11T01:57:32.283Z,10.97
2016-08-11T01:59:33.004Z,11.04
2016-08-11T02:00:31.564Z,11.08
2016-08-11T02:01:32.280Z,11.05
2016-08-11T02:02:32.281Z,11.04
2016-08-11T02:03:32.992Z,11.01
2016-08-11T02:04:32.272Z,11.13
2016-08-11T02:05:33.000Z,11.1
2016-08-11T02:06:33.000Z,11.19
2016-08-11T02:07:32.996Z,11.22
2016-08-11T02:08:33.000Z,11.22
2016-08-11T02:09:33.001Z,11.15
2016-08-11T02:10:32.273Z,11.31
2016-08-11T02:11:31.553Z,11.22
2016-08-11T02:12:32.269Z,11.25
2016-08-11T02:14:32.257Z,11.27
2016-08-11T02:15:32.981Z,11.31
2016-08-11T02:16:32.272Z,11.35
2016-08-11T02:17:32.988Z,11.33
2016-08-11T02:18:32.984Z,11.35
2016-08-11T02:19:32.977Z,11.3
2016-08-11T02:20:32.261Z,11.26
2016-08-11T02:21:32.985Z,11.35
2016-08-11T02:22:32.252Z,11.33
2016-08-11T02:23:32.976Z,11.25
2016-08-11T02:24:32.261Z,11.27
2016-08-11T02:25:32.968Z,11.2
2016-08-11T02:26:32.972Z,11.2
2016-08-11T02:27:32.966Z,11.3
2016-08-11T02:28:32.957Z,11.26
2016-08-11T02:29:32.962Z,11.19
2016-08-11T02:30:32.241Z,11.16
2016-08-11T02:31:32.964Z,11.07
2016-08-11T02:32:32.243Z,11.15
2016-08-11T02:33:32.962Z,11.1
2016-08-11T02:34:31.521Z,11.05
2016-08-11T02:35:32.957Z,11.07
2016-08-11T02:36:32.234Z,11.08
2016-08-11T02:37:31.513Z,11.12
2016-08-11T02:38:31.513Z,11.04
2016-08-11T02:39:32.946Z,11.01
2016-08-11T02:40:32.218Z,11.04
2016-08-11T02:41:32.945Z,10.87
2016-08-11T02:42:32.953Z,10.9
2016-08-11T02:43:32.222Z,10.97
2016-08-11T02:44:32.950Z,11.01
2016-08-11T02:45:32.221Z,10.89
2016-08-11T02:46:32.949Z,10.89
2016-08-11T02:47:32.218Z,10.89
2016-08-11T02:48:32.246Z,10.87
2016-08-11T02:49:32.210Z,10.84
2016-08-11T02:50:32.946Z,10.83
2016-08-11T02:51:32.943Z,10.94
2016-08-11T02:52:32.217Z,10.76
2016-08-11T02:53:32.206Z,10.79
2016-08-11T02:54:32.214Z,10.83
2016-08-11T02:55:32.938Z,10.9
2016-08-11T02:56:32.930Z,10.83
2016-08-11T02:57:32.206Z,10.87
2016-08-11T02:58:32.222Z,10.84
2016-08-11T02:59:32.214Z,10.95
2016-08-11T03:00:32.211Z,10.84
2016-08-11T03:01:32.926Z,10.84
2016-08-11T03:02:32.914Z,10.82
2016-08-11T03:03:32.203Z,10.82
2016-08-11T03:04:31.487Z,10.84
2016-08-11T03:05:32.931Z,10.82
2016-08-11T03:06:33.011Z,10.9
2016-08-11T03:07:32.198Z,10.86
2016-08-11T03:08:32.195Z,10.86
2016-08-11T03:09:32.925Z,10.83
2016-08-11T03:10:32.914Z,10.87
2016-08-11T03:11:32.186Z,10.9
2016-08-11T03:12:32.918Z,10.89
2016-08-11T03:13:31.478Z,10.86
2016-08-11T03:14:32.910Z,10.87
2016-08-11T03:15:32.186Z,10.84
2016-08-11T03:16:32.183Z,10.84
2016-08-11T03:17:32.907Z,10.86
2016-08-11T03:18:32.172Z,10.86
2016-08-11T03:19:32.171Z,10.82
2016-08-11T03:20:32.179Z,10.89
2016-08-11T03:21:32.902Z,10.79
2016-08-11T03:22:32.894Z,10.79
2016-08-11T03:23:32.899Z,10.86
2016-08-11T03:24:32.167Z,10.82
2016-08-11T03:25:32.882Z,10.8
2016-08-11T03:26:32.890Z,10.8
2016-08-11T03:27:32.176Z,10.79
2016-08-11T03:28:32.895Z,10.77
2016-08-11T03:29:32.896Z,10.72
2016-08-11T03:30:32.887Z,10.82
2016-08-11T03:31:31.442Z,10.79
2016-08-11T03:32:32.167Z,10.8
2016-08-11T03:33:32.151Z,10.82
2016-08-11T03:34:32.876Z,10.71
2016-08-11T03:35:32.879Z,10.76
2016-08-11T03:36:32.875Z,10.68
2016-08-11T03:37:32.154Z,10.69
2016-08-11T03:38:32.152Z,10.65
2016-08-11T03:39:32.155Z,10.71
2016-08-11T03:40:32.148Z,10.65
2016-08-11T03:41:32.865Z,10.67
2016-08-11T03:42:32.871Z,10.67
2016-08-11T03:43:32.152Z,10.58
2016-08-11T03:44:32.867Z,10.61
2016-08-11T03:45:31.430Z,10.62
2016-08-11T03:46:32.859Z,10.49
2016-08-11T03:47:32.137Z,10.59
2016-08-11T03:48:32.853Z,10.57
2016-08-11T03:49:32.859Z,10.41
2016-08-11T03:50:32.855Z,10.46
2016-08-11T03:51:32.856Z,10.34
2016-08-11T03:52:32.136Z,10.39
2016-08-11T03:53:32.124Z,10.41
2016-08-11T03:54:32.127Z,10.34
2016-08-11T03:55:32.860Z,10.33
2016-08-11T03:56:32.856Z,10.34
2016-08-11T03:57:32.840Z,10.28
2016-08-11T03:58:32.844Z,10.27
2016-08-11T03:59:32.836Z,10.18
2016-08-11T04:00:32.129Z,10.13
2016-08-11T04:01:32.132Z,10.2
2016-08-11T04:02:32.840Z,10.17
2016-08-11T04:03:32.837Z,10.1
2016-08-11T04:04:32.837Z,10.07
2016-08-11T04:05:32.109Z,10.03
2016-08-11T04:06:32.168Z,10.05
2016-08-11T04:07:32.832Z,10.06
2016-08-11T04:08:32.828Z,9.99
2016-08-11T04:09:32.108Z,10
2016-08-11T04:10:32.104Z,9.92
2016-08-11T04:11:31.396Z,9.91
2016-08-11T04:12:32.100Z,9.84
2016-08-11T04:13:32.821Z,9.87
2016-08-11T04:14:32.828Z,9.88
2016-08-11T04:15:32.092Z,9.91
2016-08-11T04:16:32.824Z,9.84
2016-08-11T04:17:32.830Z,9.85
2016-08-11T04:18:32.808Z,10
2016-08-11T04:19:32.813Z,10.02
2016-08-11T04:20:32.825Z,9.95
2016-08-11T04:21:32.093Z,10
2016-08-11T04:22:31.373Z,10
2016-08-11T04:23:32.815Z,10.03
2016-08-11T04:24:32.809Z,10.13
2016-08-11T04:25:32.809Z,10.05
2016-08-11T04:26:32.809Z,10.1
2016-08-11T04:27:32.088Z,10.05
2016-08-11T04:28:32.090Z,10.1
2016-08-11T04:29:32.805Z,10.07
2016-08-11T04:30:32.086Z,10.1
2016-08-11T04:31:32.793Z,10.18
2016-08-11T04:32:32.073Z,10.15
2016-08-11T04:33:32.073Z,10.21
2016-08-11T04:34:32.789Z,10.27
2016-08-11T04:35:32.797Z,10.31
2016-08-11T04:36:32.793Z,10.31
2016-08-11T04:37:32.798Z,10.36
2016-08-11T04:38:32.802Z,10.39
2016-08-11T04:39:32.802Z,10.39
2016-08-11T04:40:32.078Z,10.48
2016-08-11T04:41:32.802Z,10.58
2016-08-11T04:42:32.794Z,10.55
2016-08-11T04:43:32.795Z,10.58
2016-08-11T04:44:32.795Z,10.61
2016-08-11T04:45:32.790Z,10.59
2016-08-11T04:46:32.790Z,10.59
2016-08-11T04:47:32.802Z,10.71
2016-08-11T04:48:32.786Z,10.67
2016-08-11T04:49:32.786Z,10.69
2016-08-11T04:50:32.786Z,10.67
2016-08-11T04:51:32.782Z,10.67
2016-08-11T04:52:32.786Z,10.65
2016-08-11T04:53:32.786Z,10.61
2016-08-11T04:54:32.778Z,10.58
2016-08-11T04:55:32.778Z,10.58
2016-08-11T04:56:32.782Z,10.53
2016-08-11T04:57:32.773Z,10.64
2016-08-11T04:58:32.774Z,10.51
2016-08-11T04:59:32.779Z,10.58
2016-08-11T05:00:32.770Z,10.53
2016-08-11T05:01:32.771Z,10.51
2016-08-11T05:02:32.767Z,10.53
2016-08-11T05:03:32.766Z,10.49
2016-08-11T05:04:32.770Z,10.61
2016-08-11T05:05:32.762Z,10.59
2016-08-11T05:06:32.762Z,10.59
2016-08-11T05:07:32.762Z,10.57
2016-08-11T05:08:32.758Z,10.53
2016-08-11T05:09:32.758Z,10.53
2016-08-11T05:10:32.759Z,10.51
2016-08-11T05:11:32.754Z,10.53
2016-08-11T05:12:32.755Z,10.49
2016-08-11T05:13:32.751Z,10.55
2016-08-11T05:14:32.755Z,10.49
2016-08-11T05:15:32.751Z,10.65
2016-08-11T05:16:32.747Z,10.71
2016-08-11T05:17:32.755Z,10.72
2016-08-11T05:18:32.747Z,10.77
2016-08-11T05:19:32.755Z,10.84
2016-08-11T05:20:32.743Z,10.82
2016-08-11T05:21:32.742Z,10.87
2016-08-11T05:22:32.764Z,10.95
2016-08-11T05:23:32.743Z,11
2016-08-11T05:24:32.738Z,10.98
2016-08-11T05:25:32.739Z,11.02
2016-08-11T05:26:32.735Z,11.07
2016-08-11T05:27:32.736Z,11.02
2016-08-11T05:28:32.735Z,11.08
2016-08-11T05:29:32.732Z,11.12
2016-08-11T05:30:32.727Z,11.12
2016-08-11T05:31:32.736Z,11.31
2016-08-11T05:32:32.728Z,11.35
2016-08-11T05:33:32.726Z,11.51
2016-08-11T05:34:32.727Z,11.55
2016-08-11T05:35:32.723Z,11.62
2016-08-11T05:36:32.723Z,11.78
2016-08-11T05:37:32.723Z,12
2016-08-11T05:38:32.719Z,12.1
2016-08-11T05:39:32.719Z,12.14
2016-08-11T05:40:32.720Z,12.32
2016-08-11T05:41:32.720Z,12.4
2016-08-11T05:42:32.715Z,12.61
2016-08-11T05:43:32.715Z,12.76
2016-08-11T05:44:32.716Z,12.94
2016-08-11T05:45:32.716Z,13.03
2016-08-11T05:46:32.732Z,13.3
2016-08-11T05:47:32.717Z,13.36
2016-08-11T05:48:32.716Z,13.55
2016-08-11T05:49:32.708Z,13.67
2016-08-11T05:50:32.704Z,13.95
2016-08-11T05:51:32.708Z,14.05
2016-08-11T05:52:32.707Z,14.28
2016-08-11T05:53:32.700Z,14.4
2016-08-11T05:54:32.705Z,14.56
2016-08-11T05:55:32.705Z,14.67
2016-08-11T05:56:32.704Z,14.92
2016-08-11T05:57:32.700Z,15
2016-08-11T05:58:32.713Z,15.08
2016-08-11T05:59:32.713Z,15.27
2016-08-11T06:00:32.700Z,15.26
2016-08-11T06:01:32.697Z,15.41
2016-08-11T06:02:32.698Z,15.45
2016-08-11T06:03:32.697Z,15.63
2016-08-11T06:04:32.697Z,15.76
2016-08-11T06:05:32.845Z,15.96
2016-08-11T06:06:33.496Z,16.47
2016-08-11T06:07:32.708Z,17.27
2016-08-11T06:08:32.693Z,18.16
2016-08-11T06:09:32.692Z,19.52
2016-08-11T06:10:32.693Z,20.66
2016-08-11T06:11:32.704Z,21.88
2016-08-11T06:12:32.693Z,23.04
2016-08-11T06:13:32.693Z,24.03
2016-08-11T06:14:32.693Z,25.12
2016-08-11T06:15:32.693Z,26.07
2016-08-11T06:16:32.693Z,26.71
2016-08-11T06:17:32.697Z,27.4
2016-08-11T06:18:32.697Z,27.85
2016-08-11T06:19:32.697Z,28.06
2016-08-11T06:20:32.698Z,28.4
2016-08-11T06:21:32.700Z,28.72
2016-08-11T06:22:32.702Z,28.97
2016-08-11T06:23:32.702Z,29.16
2016-08-11T06:24:32.706Z,29.52
2016-08-11T06:25:32.705Z,29.86
2016-08-11T06:26:32.710Z,29.98
2016-08-11T06:27:32.709Z,30.06
2016-08-11T06:28:32.717Z,30.1
2016-08-11T06:29:32.722Z,30.39
2016-08-11T06:30:32.717Z,30.77
2016-08-11T06:31:32.722Z,31.02
2016-08-11T06:32:32.726Z,31.1
2016-08-11T06:33:32.730Z,31.42
2016-08-11T06:34:32.730Z,31.64
2016-08-11T06:35:32.734Z,32.08
2016-08-11T06:36:32.018Z,32.29
2016-08-11T06:37:32.741Z,32.49
2016-08-11T06:38:32.745Z,32.71
2016-08-11T06:39:32.750Z,33.13
2016-08-11T06:40:32.750Z,33.42
2016-08-11T06:41:32.754Z,33.47
2016-08-11T06:42:32.761Z,33.22
2016-08-11T06:43:32.766Z,32.91
2016-08-11T06:44:32.767Z,32.64
2016-08-11T06:45:32.774Z,32.44
2016-08-11T06:46:32.787Z,32.29
2016-08-11T06:47:32.783Z,32.19
2016-08-11T06:48:32.782Z,31.9
2016-08-11T06:49:32.795Z,31.78
2016-08-11T06:50:32.803Z,31.7
2016-08-11T06:51:32.798Z,31.64
2016-08-11T06:52:32.806Z,31.55
2016-08-11T06:53:32.811Z,31.45
2016-08-11T06:54:32.814Z,31.52
2016-08-11T06:55:32.822Z,31.54
2016-08-11T06:56:32.835Z,31.44
2016-08-11T06:57:32.979Z,31.22
2016-08-11T06:58:32.843Z,31.13
2016-08-11T06:59:32.843Z,31.05
2016-08-11T07:00:32.846Z,31.18
2016-08-11T07:01:32.851Z,31.33
2016-08-11T07:02:32.859Z,31.32
2016-08-11T07:03:32.862Z,31.42
2016-08-11T07:04:32.871Z,31.51
2016-08-11T07:05:32.875Z,31.67
2016-08-11T07:06:34.494Z,32.24
2016-08-11T07:07:32.887Z,32.63
2016-08-11T07:08:32.894Z,32.93
2016-08-11T07:09:32.899Z,33.16
2016-08-11T07:10:32.904Z,32.97
2016-08-11T07:11:32.911Z,32.82
2016-08-11T07:12:32.919Z,32.72
2016-08-11T07:13:32.928Z,32.79
2016-08-11T07:14:32.931Z,32.95
2016-08-11T07:15:32.936Z,32.83
2016-08-11T07:16:32.948Z,32.6
2016-08-11T07:17:32.947Z,32.59
2016-08-11T07:18:32.956Z,32.76
2016-08-11T07:19:32.964Z,32.91
2016-08-11T07:20:32.988Z,33.17
2016-08-11T07:21:32.976Z,33.33
2016-08-11T07:22:32.983Z,33.39
2016-08-11T07:23:32.996Z,33.65
2016-08-11T07:24:32.998Z,33.7
2016-08-11T07:25:33.012Z,34
2016-08-11T07:26:33.012Z,34.21
2016-08-11T07:27:33.020Z,34.38
2016-08-11T07:28:33.031Z,34.73
2016-08-11T07:29:32.568Z,35.15
2016-08-11T07:30:33.050Z,35.3
2016-08-11T07:31:33.047Z,35.26
2016-08-11T07:32:33.055Z,35.53
2016-08-11T07:33:33.060Z,35.94
2016-08-11T07:34:33.068Z,36.29
2016-08-11T07:35:33.076Z,36.72
2016-08-11T07:36:33.089Z,36.96
2016-08-11T07:37:33.092Z,36.73
2016-08-11T07:38:33.111Z,36.78
2016-08-11T07:39:33.112Z,36.73
2016-08-11T07:40:33.116Z,36.94
2016-08-11T07:41:33.124Z,37.36
2016-08-11T07:42:33.129Z,37.76
2016-08-11T07:43:33.137Z,38.31
2016-08-11T07:44:32.684Z,38.82
2016-08-11T07:45:33.152Z,39.32
2016-08-11T07:46:33.168Z,39.88
2016-08-11T07:47:33.171Z,40.64
2016-08-11T07:48:33.176Z,41.33
2016-08-11T07:49:33.184Z,42.15
2016-08-11T07:50:33.196Z,42.86
2016-08-11T07:51:33.200Z,43.24
2016-08-11T07:52:33.212Z,43.36
2016-08-11T07:53:33.372Z,43.49
2016-08-11T07:54:33.225Z,43.57
2016-08-11T07:55:33.233Z,43.35
2016-08-11T07:56:33.244Z,42.52
2016-08-11T07:57:33.248Z,41.7
2016-08-11T07:58:33.257Z,41.52
2016-08-11T07:59:32.817Z,41.37
2016-08-11T08:00:33.277Z,41.65
2016-08-11T08:01:33.285Z,41.95
2016-08-11T08:02:33.292Z,41.96
2016-08-11T08:03:33.300Z,42.03
2016-08-11T08:04:33.309Z,42.53
2016-08-11T08:05:33.317Z,43.05
2016-08-11T08:06:33.425Z,43.89
2016-08-11T08:07:32.613Z,44.73
2016-08-11T08:08:33.346Z,45.37
2016-08-11T08:09:33.357Z,45.86
2016-08-11T08:10:33.637Z,45.96
2016-08-11T08:11:33.369Z,45.89
2016-08-11T08:12:33.377Z,45.04
2016-08-11T08:13:33.401Z,43.77
2016-08-11T08:14:32.469Z,42.29
2016-08-11T08:15:33.401Z,40.7
2016-08-11T08:16:33.421Z,39.27
2016-08-11T08:17:33.417Z,37.95
2016-08-11T08:18:33.425Z,36.8
2016-08-11T08:19:33.434Z,36.41
2016-08-11T08:20:33.441Z,36.45
2016-08-11T08:21:33.445Z,37.04
2016-08-11T08:22:33.461Z,37.56
2016-08-11T08:23:33.470Z,38.39
2016-08-11T08:24:33.470Z,39.23
2016-08-11T08:25:33.478Z,39.94
2016-08-11T08:26:33.485Z,40.62
2016-08-11T08:27:33.498Z,41.1
2016-08-11T08:28:33.546Z,41.67
2016-08-11T08:29:32.587Z,42.18
2016-08-11T08:30:33.515Z,42.53
2016-08-11T08:31:33.523Z,43.05
2016-08-11T08:32:33.530Z,43.69
2016-08-11T08:33:32.818Z,44.07
2016-08-11T08:34:33.546Z,44.47
2016-08-11T08:35:33.554Z,44.5
2016-08-11T08:36:33.562Z,44.6
2016-08-11T08:37:33.569Z,44.82
2016-08-11T08:38:33.578Z,45.06
2016-08-11T08:39:33.586Z,45.37
2016-08-11T08:40:33.601Z,45.74
2016-08-11T08:41:33.621Z,46.24
2016-08-11T08:42:33.610Z,46.18
2016-08-11T08:43:33.618Z,45.73
2016-08-11T08:44:32.702Z,44.86
2016-08-11T08:45:33.630Z,43.47
2016-08-11T08:46:33.637Z,42.18
2016-08-11T08:47:33.646Z,41.03
2016-08-11T08:48:33.654Z,40.51
2016-08-11T08:49:33.666Z,40.61
2016-08-11T08:50:33.667Z,40.77
2016-08-11T08:51:33.674Z,41.36
2016-08-11T08:52:33.681Z,41.64
2016-08-11T08:53:33.699Z,41.32
2016-08-11T08:54:33.698Z,40.24
2016-08-11T08:55:33.702Z,39.42
2016-08-11T08:56:32.994Z,39.05
2016-08-11T08:57:33.723Z,39.04
2016-08-11T08:58:33.726Z,39.38
2016-08-11T09:00:33.739Z,40.89
2016-08-11T09:01:33.751Z,41.9
2016-08-11T09:02:33.754Z,42.65
2016-08-11T09:03:33.758Z,42.93
2016-08-11T09:04:33.767Z,42.51
2016-08-11T09:05:33.775Z,41.58
2016-08-11T09:06:33.783Z,40.44
2016-08-11T09:07:33.786Z,39.08
2016-08-11T09:08:33.794Z,38.02
2016-08-11T09:09:33.799Z,37.33
2016-08-11T09:10:34.007Z,36.84
2016-08-11T09:11:33.811Z,36.94
2016-08-11T09:12:33.820Z,37.45
2016-08-11T09:13:33.842Z,38.39
2016-08-11T09:15:33.838Z,39.88
2016-08-11T09:16:33.842Z,40.95
2016-08-11T09:17:33.851Z,41.78
2016-08-11T09:18:33.864Z,42.37
2016-08-11T09:19:33.863Z,43.02
2016-08-11T09:20:33.867Z,43.25
2016-08-11T09:21:33.875Z,43.43
2016-08-11T09:22:33.875Z,43.68
2016-08-11T09:23:33.887Z,44.07
2016-08-11T09:24:33.890Z,44.5
2016-08-11T09:25:33.899Z,44.84
2016-08-11T09:26:33.904Z,44.76
2016-08-11T09:27:33.925Z,44.65
2016-08-11T09:28:33.916Z,44.5
2016-08-11T09:30:33.931Z,44.5
2016-08-11T09:31:33.932Z,44.4
2016-08-11T09:32:33.939Z,44.64
2016-08-11T09:33:33.944Z,44.37
2016-08-11T09:34:33.227Z,43.89
2016-08-11T09:35:33.964Z,43.12
2016-08-11T09:36:33.963Z,42.55
2016-08-11T09:37:33.972Z,41.74
2016-08-11T09:38:34.120Z,40.62
2016-08-11T09:39:33.975Z,39.66
2016-08-11T09:40:33.984Z,38.69
2016-08-11T09:41:33.988Z,37.94
2016-08-11T09:42:33.992Z,37.1
2016-08-11T09:43:34.000Z,36.26
2016-08-11T09:45:34.008Z,34.71
2016-08-11T09:46:34.016Z,33.81
2016-08-11T09:47:34.016Z,32.88
2016-08-11T09:48:34.024Z,31.78
2016-08-11T09:49:34.028Z,30.92
2016-08-11T09:50:34.038Z,29.96
2016-08-11T09:51:34.036Z,29.28
2016-08-11T09:52:34.043Z,28.56
2016-08-11T09:53:34.048Z,28.08
2016-08-11T09:54:34.052Z,27.29
2016-08-11T09:55:34.060Z,26.89
2016-08-11T09:56:34.060Z,26.59
2016-08-11T09:57:34.069Z,26.16
2016-08-11T09:58:34.068Z,25.83
2016-08-11T10:00:34.080Z,25.26
2016-08-11T10:01:34.085Z,25.11
2016-08-11T10:02:34.089Z,24.71
2016-08-11T10:03:34.092Z,24.53
2016-08-11T10:04:34.101Z,24.46
2016-08-11T10:05:34.101Z,24.28
2016-08-11T10:06:34.172Z,24.28
2016-08-11T10:07:34.113Z,24.24
2016-08-11T10:08:34.117Z,24.18
2016-08-11T10:09:34.133Z,24.26
2016-08-11T10:10:34.125Z,24.34
2016-08-11T10:11:34.128Z,24.28
2016-08-11T10:12:34.132Z,24.19
2016-08-11T10:13:34.141Z,24.19
2016-08-11T10:15:34.145Z,24.11
2016-08-11T10:16:34.149Z,24.1
2016-08-11T10:17:34.159Z,24
2016-08-11T10:18:34.157Z,23.88
2016-08-11T10:19:34.161Z,23.55
2016-08-11T10:20:34.165Z,23.34
2016-08-11T10:21:34.170Z,23.23
2016-08-11T10:22:34.177Z,23.17
2016-08-11T10:23:34.177Z,23.07
2016-08-11T10:24:34.184Z,22.84
2016-08-11T10:25:34.185Z,22.8
2016-08-11T10:26:34.193Z,22.7
2016-08-11T10:27:34.193Z,22.62
2016-08-11T10:28:34.197Z,22.59
2016-08-11T10:29:34.205Z,22.67
2016-08-11T10:30:34.210Z,22.71
2016-08-11T10:31:34.209Z,22.78
2016-08-11T10:32:34.218Z,22.83
2016-08-11T10:33:34.217Z,23.16
2016-08-11T10:34:34.220Z,23.28
2016-08-11T10:35:34.225Z,23.48
2016-08-11T10:36:34.230Z,23.51
2016-08-11T10:37:34.234Z,23.58
2016-08-11T10:38:34.237Z,23.62
2016-08-11T10:39:34.245Z,23.63
2016-08-11T10:40:34.248Z,23.54
2016-08-11T10:41:34.253Z,23.55
2016-08-11T10:42:34.259Z,23.42
2016-08-11T10:43:34.266Z,23.52
2016-08-11T10:44:34.261Z,23.37
2016-08-11T10:45:34.265Z,23.51
2016-08-11T10:46:34.269Z,23.47
2016-08-11T10:47:34.273Z,23.34
2016-08-11T10:48:34.281Z,23.54
2016-08-11T10:49:34.277Z,23.47
2016-08-11T10:50:34.282Z,23.47
2016-08-11T10:51:34.285Z,23.45
2016-08-11T10:52:34.294Z,23.33
2016-08-11T10:53:34.293Z,23.25
2016-08-11T10:54:34.298Z,23.42
2016-08-11T10:55:34.302Z,23.56
2016-08-11T10:56:34.308Z,23.7
2016-08-11T10:57:34.310Z,23.73
2016-08-11T10:58:34.314Z,23.89
2016-08-11T10:59:34.323Z,23.95
2016-08-11T11:00:34.322Z,23.91
2016-08-11T11:01:34.322Z,24.06
2016-08-11T11:02:34.326Z,24.13
2016-08-11T11:03:34.334Z,24.26
2016-08-11T11:04:34.334Z,24.4
2016-08-11T11:05:34.340Z,24.5
2016-08-11T11:06:34.342Z,24.51
2016-08-11T11:07:34.350Z,24.41
2016-08-11T11:08:34.350Z,24.4
2016-08-11T11:09:33.638Z,24.38
2016-08-11T11:10:34.358Z,24.25
2016-08-11T11:11:34.359Z,24.22
2016-08-11T11:12:34.375Z,24.11
2016-08-11T11:13:34.366Z,24.13
2016-08-11T11:14:34.371Z,24.13
2016-08-11T11:15:34.375Z,24.03
2016-08-11T11:16:34.379Z,24
2016-08-11T11:17:34.395Z,23.76
2016-08-11T11:18:34.390Z,23.66
2016-08-11T11:19:34.392Z,23.56
2016-08-11T11:20:34.395Z,23.51
2016-08-11T11:21:34.407Z,23.44
2016-08-11T11:22:33.687Z,23.37
2016-08-11T11:23:34.407Z,23.42
2016-08-11T11:24:34.407Z,23.42
2016-08-11T11:25:34.411Z,23.39
2016-08-11T11:26:34.424Z,23.42
2016-08-11T11:27:34.431Z,23.48
2016-08-11T11:28:34.423Z,23.39
2016-08-11T11:29:34.423Z,23.56
2016-08-11T11:30:34.444Z,23.55
2016-08-11T11:31:34.439Z,23.62
2016-08-11T11:32:34.435Z,23.63
2016-08-11T11:33:34.440Z,23.64
2016-08-11T11:34:34.443Z,23.76
2016-08-11T11:35:34.443Z,23.76
2016-08-11T11:36:34.448Z,23.74
2016-08-11T11:37:34.452Z,23.64
2016-08-11T11:38:34.456Z,23.44
2016-08-11T11:39:34.460Z,23.44
2016-08-11T11:40:34.460Z,23.18
2016-08-11T11:41:34.463Z,23.04
2016-08-11T11:42:34.468Z,23.08
2016-08-11T11:43:34.471Z,23.07
2016-08-11T11:44:34.476Z,23.16
2016-08-11T11:45:34.480Z,23.26
2016-08-11T11:46:34.480Z,23.34
2016-08-11T11:47:34.484Z,23.34
2016-08-11T11:48:34.489Z,23.42
2016-08-11T11:49:34.492Z,23.4
2016-08-11T11:50:34.498Z,23.47
2016-08-11T11:51:34.496Z,23.39
2016-08-11T11:52:34.500Z,23.42
2016-08-11T11:53:34.504Z,23.33
2016-08-11T11:54:34.504Z,23.4
2016-08-11T11:55:34.527Z,23.37
2016-08-11T11:56:34.517Z,23.17
2016-08-11T11:57:34.516Z,23.02
2016-08-11T11:58:34.520Z,22.84
2016-08-11T11:59:34.525Z,22.78
2016-08-11T12:00:34.530Z,22.89
2016-08-11T12:01:34.532Z,23.06
2016-08-11T12:02:34.537Z,23.16
2016-08-11T12:03:34.532Z,23.18
2016-08-11T12:04:34.541Z,23.16
2016-08-11T12:05:34.545Z,23.18
2016-08-11T12:06:34.545Z,23.16
2016-08-11T12:07:34.549Z,23.07
2016-08-11T12:08:34.554Z,23.07
2016-08-11T12:09:34.557Z,23.08
2016-08-11T12:10:34.556Z,23.02
2016-08-11T12:11:34.561Z,23.06
2016-08-11T12:12:34.568Z,23.11
2016-08-11T12:13:34.569Z,23.08
2016-08-11T12:14:34.580Z,23.14
2016-08-11T12:15:34.573Z,23.29
2016-08-11T12:16:34.578Z,23.33
2016-08-11T12:17:34.581Z,23.39
2016-08-11T12:18:34.580Z,23.36
2016-08-11T12:19:34.601Z,23.34
2016-08-11T12:20:34.589Z,23.28
2016-08-11T12:21:34.613Z,23.16
2016-08-11T12:22:34.597Z,23.06
2016-08-11T12:23:34.601Z,22.98
2016-08-11T12:24:34.601Z,22.92
2016-08-11T12:25:34.605Z,22.83
2016-08-11T12:26:34.609Z,22.84
2016-08-11T12:27:34.624Z,22.88
2016-08-11T12:28:34.613Z,22.8
2016-08-11T12:29:34.625Z,22.65
2016-08-11T12:30:34.622Z,22.56
2016-08-11T12:31:34.621Z,22.49
2016-08-11T12:32:34.625Z,22.49
2016-08-11T12:33:34.629Z,22.31
2016-08-11T12:34:34.633Z,22.31
2016-08-11T12:35:34.634Z,22.22
2016-08-11T12:36:34.638Z,22.06
2016-08-11T12:37:34.642Z,22.06
2016-08-11T12:38:34.645Z,22.03
2016-08-11T12:39:34.645Z,22.04
2016-08-11T12:40:34.649Z,21.99
2016-08-11T12:41:34.657Z,22.04
2016-08-11T12:42:34.654Z,21.94
2016-08-11T12:43:34.657Z,21.96
2016-08-11T12:44:34.662Z,21.91
2016-08-11T12:45:34.662Z,21.89
2016-08-11T12:46:34.668Z,21.88
2016-08-11T12:47:34.670Z,21.77
2016-08-11T12:48:34.670Z,21.83
2016-08-11T12:49:34.674Z,21.78
2016-08-11T12:50:34.678Z,21.78
2016-08-11T12:51:34.681Z,21.7
2016-08-11T12:52:34.693Z,21.72
2016-08-11T12:53:34.686Z,21.65
2016-08-11T12:54:34.690Z,21.69
2016-08-11T12:55:34.714Z,21.65
2016-08-11T12:56:34.694Z,21.66
2016-08-11T12:57:34.699Z,21.59
2016-08-11T12:58:34.706Z,21.62
2016-08-11T12:59:34.711Z,21.62
2016-08-11T13:00:34.246Z,21.54
2016-08-11T13:01:34.706Z,21.59
2016-08-11T13:02:34.715Z,21.62
2016-08-11T13:03:34.715Z,21.6
2016-08-11T13:04:34.718Z,21.51
2016-08-11T13:05:34.718Z,21.6
2016-08-11T13:06:34.727Z,21.51
2016-08-11T13:07:34.723Z,21.48